Napoli Jet — IQTJ — position and weather

sailwx.info

Track history (hours):
 
Tides and Currents Weather Stations Pressure Air Temp Water Temp Dewpoint Dewpoint Depression Visibility Wind Speed Wind Dir Waves Ship Positions

Napoli Jet

Last reported at 2015-May-25 18:09 UTC. Time now 2015-May-25 23:33 UTC.
Position N 40°45' E 013°56'.

Length 41 m; draft 1.3 m.

Type: Ship. MMSI: 247051400.

Date/timePositionNaut miles runAvg speedWind from/ knotsBaromVisibWave heightAir tempDewpointWater temp
2015-May-25 18:09N 40°45' E 013°56'0 0.0
2015-May-25 17:34N 40°45' E 013°56'1615.3
2015-May-25 16:31N 40°49' E 014°17'1 0.3
2015-May-25 13:33N 40°50' E 014°17'1616.4
2015-May-25 12:33N 40°45' E 013°56'1111.4
2015-May-25 11:34N 40°47' E 014°11'3 0.8
2015-May-25 07:33N 40°47' E 014°07'5 5.5
2015-May-25 06:34N 40°46' E 013°60'1310.5
2015-May-25 05:16N 40°50' E 014°17'1318.0
2015-May-25 04:34N 40°46' E 014°00'3 0.3
2015-May-24 17:30N 40°45' E 013°56'1314.1
2015-May-24 16:33N 40°48' E 014°14'3 1.1
2015-May-24 13:30N 40°50' E 014°17'1617.2
2015-May-24 12:33N 40°45' E 013°56'1111.4
2015-May-24 11:34N 40°47' E 014°11'5 2.2
2015-May-24 09:15N 40°50' E 014°16'1217.2
2015-May-24 08:33N 40°46' E 014°02'4 4.2
2015-May-24 07:33N 40°45' E 013°56'2 2.1
2015-May-24 06:34N 40°46' E 013°59'1410.7
2015-May-24 05:15N 40°50' E 014°16'1217.7
2015-May-24 04:34N 40°46' E 014°01'4 0.3
2015-May-23 17:33N 40°45' E 013°56'1414.0
2015-May-23 16:33N 40°48' E 014°14'3 0.9
2015-May-23 13:33N 40°50' E 014°16'1616.1
2015-May-23 12:33N 40°45' E 013°56'1211.7
2015-May-23 11:33N 40°47' E 014°12'5 2.1
2015-May-23 09:17N 40°50' E 014°17'1216.6
2015-May-23 08:34N 40°46' E 014°01'4 4.2
2015-May-23 07:33N 40°45' E 013°56'3 3.1
2015-May-23 06:34N 40°46' E 014°00'13 9.7
2015-May-23 05:13N 40°50' E 014°16'1218.4
2015-May-23 04:34N 40°46' E 014°01'12 0.8
2015-May-22 13:32N 40°50' E 014°16'1616.2
2015-May-22 12:33N 40°45' E 013°56'1313.2
2015-May-22 11:33N 40°48' E 014°13'3 1.3
2015-May-22 09:16N 40°50' E 014°16'1216.7
2015-May-22 08:33N 40°46' E 014°02'4 4.2
2015-May-22 07:33N 40°45' E 013°56'2 2.4
2015-May-22 06:34N 40°46' E 013°59'1410.2
2015-May-22 05:13N 40°50' E 014°16'1218.3
2015-May-22 04:33N 40°46' E 014°01'4 0.4
2015-May-21 18:06N 40°45' E 013°56'0 0.1
2015-May-21 17:33N 40°45' E 013°56'1313.0
2015-May-21 16:33N 40°48' E 014°13'3 1.1
2015-May-21 13:30N 40°50' E 014°16'1617.1
2015-May-21 12:33N 40°45' E 013°56'1211.8
2015-May-21 11:33N 40°47' E 014°12'5 2.0
2015-May-21 09:14N 40°50' E 014°16'1217.6
2015-May-21 08:34N 40°46' E 014°02'4 4.1
2015-May-21 07:33N 40°45' E 013°56'4 4.4
2015-May-21 06:34N 40°45' E 014°02'12 9.4
2015-May-21 05:17N 40°49' E 014°17'1317.9
2015-May-21 04:34N 40°46' E 014°00'3 3.4
2015-May-21 03:33N 40°45' E 013°56'0 0.0
2015-May-20 17:34N 40°45' E 013°56'1413.7
2015-May-20 16:32N 40°48' E 014°14'2 0.8
2015-May-20 13:33N 40°50' E 014°15'1515.5
2015-May-20 12:33N 40°45' E 013°56'1110.8
2015-May-20 11:33N 40°47' E 014°10'6 2.4
2015-May-20 09:12N 40°50' E 014°17'1218.1
2015-May-20 08:32N 40°46' E 014°02'4 4.3
2015-May-20 07:34N 40°45' E 013°56'2 2.3
2015-May-20 06:33N 40°46' E 013°59'1410.5
2015-May-20 05:15N 40°50' E 014°16'1216.6
2015-May-20 04:33N 40°46' E 014°01'4 0.4
2015-May-19 17:32N 40°45' E 013°56'1313.1
2015-May-19 16:33N 40°48' E 014°13'3 3.2
2015-May-19 15:33N 40°50' E 014°15'1 0.6
2015-May-19 13:27N 40°50' E 014°17'1618.2
2015-May-19 12:33N 40°45' E 013°56'1111.3
2015-May-19 11:33N 40°47' E 014°11'5 2.1
2015-May-19 09:15N 40°50' E 014°16'1217.0
2015-May-19 08:33N 40°46' E 014°02'4 4.2
2015-May-19 07:33N 40°45' E 013°56'3 2.7
2015-May-19 06:34N 40°46' E 013°59'1310.8
2015-May-19 05:21N 40°50' E 014°16'1214.9
2015-May-19 04:32N 40°46' E 014°01'4 0.3
2015-May-18 17:34N 40°45' E 013°56'1514.7
2015-May-18 16:33N 40°48' E 014°15'2 0.8
2015-May-18 14:26N 40°50' E 014°15'1 0.8
2015-May-18 13:30N 40°50' E 014°16'1616.9
2015-May-18 12:33N 40°45' E 013°56'1212.2
2015-May-18 11:33N 40°47' E 014°12'4 0.7
2015-May-18 05:34N 40°50' E 014°17'1616.1
2015-May-18 04:33N 40°33' E 014°14'6 0.6
2015-May-17 18:33N 40°39' E 014°17'11 9.2
2015-May-17 17:22N 40°50' E 014°15'3 3.1
2015-May-17 16:33N 40°48' E 014°17'1514.8
2015-May-17 15:32N 40°33' E 014°14'8 7.7
2015-May-17 14:33N 40°38' E 014°23'8 7.5
2015-May-17 13:32N 40°33' E 014°14'8 7.9
2015-May-17 12:33N 40°38' E 014°23'8 7.5
2015-May-17 11:33N 40°33' E 014°14'0 0.0
2015-May-17 10:33N 40°33' E 014°14'0 0.0
2015-May-17 09:32N 40°33' E 014°14'17 4.2
2015-May-17 05:33N 40°50' E 014°17'1716.6
2015-May-17 04:33N 40°33' E 014°14'7 0.7
2015-May-16 18:33N 40°40' E 014°13'9 4.4
2015-May-16 16:31N 40°48' E 014°17'1515.6
2015-May-16 15:33N 40°33' E 014°14'8 7.7
2015-May-16 14:33N 40°38' E 014°23'8 7.5
2015-May-16 13:32N 40°33' E 014°14'8 7.6
2015-May-16 12:33N 40°38' E 014°23'8 7.6
2015-May-16 11:33N 40°33' E 014°14'0 0.0
2015-May-16 10:33N 40°33' E 014°14'0 0.0
2015-May-16 09:32N 40°33' E 014°14'16 4.0
2015-May-16 05:33N 40°49' E 014°17'1616.0
2015-May-16 04:33N 40°33' E 014°14'7 0.7
2015-May-15 18:33N 40°40' E 014°18'  
Track history (hours):
 
Tides and Currents Weather Stations Pressure Air Temp Water Temp Dewpoint Dewpoint Depression Visibility Wind Speed Wind Dir Waves Ship Positions

Napoli Jet

Last reported at 2015-May-25 18:09 UTC. Time now 2015-May-25 23:33 UTC.
Position N 40°45' E 013°56'.

Length 41 m; draft 1.3 m.

Type: Ship. MMSI: 247051400.

Date/timePositionNaut miles runAvg speedWind from/ knotsBaromVisibWave heightAir tempDewpointWater temp
2015-May-25 18:09N 40°45' E 013°56'0 0.0
2015-May-25 17:34N 40°45' E 013°56'1615.3
2015-May-25 16:31N 40°49' E 014°17'1 0.3
2015-May-25 13:33N 40°50' E 014°17'1616.4
2015-May-25 12:33N 40°45' E 013°56'1111.4
2015-May-25 11:34N 40°47' E 014°11'3 0.8
2015-May-25 07:33N 40°47' E 014°07'5 5.5
2015-May-25 06:34N 40°46' E 013°60'1310.5
2015-May-25 05:16N 40°50' E 014°17'1318.0
2015-May-25 04:34N 40°46' E 014°00'3 0.3
2015-May-24 17:30N 40°45' E 013°56'1314.1
2015-May-24 16:33N 40°48' E 014°14'3 1.1
2015-May-24 13:30N 40°50' E 014°17'1617.2
2015-May-24 12:33N 40°45' E 013°56'1111.4
2015-May-24 11:34N 40°47' E 014°11'5 2.2
2015-May-24 09:15N 40°50' E 014°16'1217.2
2015-May-24 08:33N 40°46' E 014°02'4 4.2
2015-May-24 07:33N 40°45' E 013°56'2 2.1
2015-May-24 06:34N 40°46' E 013°59'1410.7
2015-May-24 05:15N 40°50' E 014°16'1217.7
2015-May-24 04:34N 40°46' E 014°01'4 0.3
2015-May-23 17:33N 40°45' E 013°56'1414.0
2015-May-23 16:33N 40°48' E 014°14'3 0.9
2015-May-23 13:33N 40°50' E 014°16'1616.1
2015-May-23 12:33N 40°45' E 013°56'1211.7
2015-May-23 11:33N 40°47' E 014°12'5 2.1
2015-May-23 09:17N 40°50' E 014°17'1216.6
2015-May-23 08:34N 40°46' E 014°01'4 4.2
2015-May-23 07:33N 40°45' E 013°56'3 3.1
2015-May-23 06:34N 40°46' E 014°00'13 9.7
2015-May-23 05:13N 40°50' E 014°16'1218.4
2015-May-23 04:34N 40°46' E 014°01'12 0.8
2015-May-22 13:32N 40°50' E 014°16'1616.2
2015-May-22 12:33N 40°45' E 013°56'1313.2
2015-May-22 11:33N 40°48' E 014°13'3 1.3
2015-May-22 09:16N 40°50' E 014°16'1216.7
2015-May-22 08:33N 40°46' E 014°02'4 4.2
2015-May-22 07:33N 40°45' E 013°56'2 2.4
2015-May-22 06:34N 40°46' E 013°59'1410.2
2015-May-22 05:13N 40°50' E 014°16'1218.3
2015-May-22 04:33N 40°46' E 014°01'4 0.4
2015-May-21 18:06N 40°45' E 013°56'0 0.1
2015-May-21 17:33N 40°45' E 013°56'1313.0
2015-May-21 16:33N 40°48' E 014°13'3 1.1
2015-May-21 13:30N 40°50' E 014°16'1617.1
2015-May-21 12:33N 40°45' E 013°56'1211.8
2015-May-21 11:33N 40°47' E 014°12'5 2.0
2015-May-21 09:14N 40°50' E 014°16'1217.6
2015-May-21 08:34N 40°46' E 014°02'4 4.1
2015-May-21 07:33N 40°45' E 013°56'4 4.4
2015-May-21 06:34N 40°45' E 014°02'12 9.4
2015-May-21 05:17N 40°49' E 014°17'1317.9
2015-May-21 04:34N 40°46' E 014°00'3 3.4
2015-May-21 03:33N 40°45' E 013°56'0 0.0
2015-May-20 17:34N 40°45' E 013°56'1413.7
2015-May-20 16:32N 40°48' E 014°14'2 0.8
2015-May-20 13:33N 40°50' E 014°15'1515.5
2015-May-20 12:33N 40°45' E 013°56'1110.8
2015-May-20 11:33N 40°47' E 014°10'6 2.4
2015-May-20 09:12N 40°50' E 014°17'1218.1
2015-May-20 08:32N 40°46' E 014°02'4 4.3
2015-May-20 07:34N 40°45' E 013°56'2 2.3
2015-May-20 06:33N 40°46' E 013°59'1410.5
2015-May-20 05:15N 40°50' E 014°16'1216.6
2015-May-20 04:33N 40°46' E 014°01'4 0.4
2015-May-19 17:32N 40°45' E 013°56'1313.1
2015-May-19 16:33N 40°48' E 014°13'3 3.2
2015-May-19 15:33N 40°50' E 014°15'1 0.6
2015-May-19 13:27N 40°50' E 014°17'1618.2
2015-May-19 12:33N 40°45' E 013°56'1111.3
2015-May-19 11:33N 40°47' E 014°11'5 2.1
2015-May-19 09:15N 40°50' E 014°16'1217.0
2015-May-19 08:33N 40°46' E 014°02'4 4.2
2015-May-19 07:33N 40°45' E 013°56'3 2.7
2015-May-19 06:34N 40°46' E 013°59'1310.8
2015-May-19 05:21N 40°50' E 014°16'1214.9
2015-May-19 04:32N 40°46' E 014°01'4 0.3
2015-May-18 17:34N 40°45' E 013°56'1514.7
2015-May-18 16:33N 40°48' E 014°15'2 0.8
2015-May-18 14:26N 40°50' E 014°15'1 0.8
2015-May-18 13:30N 40°50' E 014°16'1616.9
2015-May-18 12:33N 40°45' E 013°56'1212.2
2015-May-18 11:33N 40°47' E 014°12'4 0.7
2015-May-18 05:34N 40°50' E 014°17'1616.1
2015-May-18 04:33N 40°33' E 014°14'6 0.6
2015-May-17 18:33N 40°39' E 014°17'11 9.2
2015-May-17 17:22N 40°50' E 014°15'3 3.1
2015-May-17 16:33N 40°48' E 014°17'1514.8
2015-May-17 15:32N 40°33' E 014°14'8 7.7
2015-May-17 14:33N 40°38' E 014°23'8 7.5
2015-May-17 13:32N 40°33' E 014°14'8 7.9
2015-May-17 12:33N 40°38' E 014°23'8 7.5
2015-May-17 11:33N 40°33' E 014°14'0 0.0
2015-May-17 10:33N 40°33' E 014°14'0 0.0
2015-May-17 09:32N 40°33' E 014°14'17 4.2
2015-May-17 05:33N 40°50' E 014°17'1716.6
2015-May-17 04:33N 40°33' E 014°14'7 0.7
2015-May-16 18:33N 40°40' E 014°13'9 4.4
2015-May-16 16:31N 40°48' E 014°17'1515.6
2015-May-16 15:33N 40°33' E 014°14'8 7.7
2015-May-16 14:33N 40°38' E 014°23'8 7.5
2015-May-16 13:32N 40°33' E 014°14'8 7.6
2015-May-16 12:33N 40°38' E 014°23'8 7.6
2015-May-16 11:33N 40°33' E 014°14'0 0.0
2015-May-16 10:33N 40°33' E 014°14'0 0.0
2015-May-16 09:32N 40°33' E 014°14'16 4.0
2015-May-16 05:33N 40°49' E 014°17'1616.0
2015-May-16 04:33N 40°33' E 014°14'7 0.7
2015-May-15 18:33N 40°40' E 014°18'  

Dump ship's entire track history